sensor_id;sensor_type;location;lat;lon;timestamp;P1;durP1;ratioP1;P2;durP2;ratioP2
67090;SDS011;54007;55.818;49.058;2023-09-07T05:40:59;8.83;;;2.40;;
67090;SDS011;54007;55.818;49.058;2023-09-07T05:43:31;9.28;;;2.37;;
67090;SDS011;54007;55.818;49.058;2023-09-07T05:45:57;9.60;;;2.47;;
67090;SDS011;54007;55.818;49.058;2023-09-07T05:48:23;8.77;;;2.57;;
67090;SDS011;54007;55.818;49.058;2023-09-07T05:50:49;9.40;;;2.00;;
67090;SDS011;54007;55.818;49.058;2023-09-07T05:53:14;6.07;;;2.10;;
67090;SDS011;54007;55.818;49.058;2023-09-07T05:55:41;8.95;;;2.67;;
67090;SDS011;54007;55.818;49.058;2023-09-07T05:58:08;9.40;;;2.65;;
67090;SDS011;54007;55.818;49.058;2023-09-07T06:00:34;7.73;;;2.80;;
67090;SDS011;54007;55.818;49.058;2023-09-07T06:02:59;8.58;;;2.98;;
67090;SDS011;54007;55.818;49.058;2023-09-07T06:05:25;7.50;;;2.10;;
67090;SDS011;54007;55.818;49.058;2023-09-07T06:07:51;7.40;;;2.10;;
67090;SDS011;54007;55.818;49.058;2023-09-07T06:10:17;15.75;;;2.30;;
67090;SDS011;54007;55.818;49.058;2023-09-07T06:12:42;10.28;;;2.20;;
67090;SDS011;54007;55.818;49.058;2023-09-07T06:15:08;10.40;;;2.33;;
67090;SDS011;54007;55.818;49.058;2023-09-07T06:17:34;9.08;;;2.35;;
67090;SDS011;54007;55.818;49.058;2023-09-07T06:20:01;10.18;;;3.67;;
67090;SDS011;54007;55.818;49.058;2023-09-07T06:22:29;11.03;;;3.15;;
67090;SDS011;54007;55.818;49.058;2023-09-07T06:24:52;10.30;;;3.30;;
67090;SDS011;54007;55.818;49.058;2023-09-07T06:27:18;13.53;;;2.80;;
67090;SDS011;54007;55.818;49.058;2023-09-07T06:29:43;7.62;;;2.27;;
67090;SDS011;54007;55.818;49.058;2023-09-07T06:32:09;8.60;;;3.00;;
67090;SDS011;54007;55.818;49.058;2023-09-07T09:18:56;4.80;;;1.50;;
67090;SDS011;54007;55.818;49.058;2023-09-07T09:21:28;7.12;;;1.62;;
67090;SDS011;54007;55.818;49.058;2023-09-07T09:23:54;4.87;;;1.55;;
67090;SDS011;54007;55.818;49.058;2023-09-07T09:26:19;9.13;;;1.40;;
67090;SDS011;54007;55.818;49.058;2023-09-07T09:28:45;16.60;;;1.62;;
67090;SDS011;54007;55.818;49.058;2023-09-07T09:31:12;5.10;;;1.57;;
67090;SDS011;54007;55.818;49.058;2023-09-07T09:33:38;6.20;;;1.50;;
67090;SDS011;54007;55.818;49.058;2023-09-07T09:36:03;6.22;;;1.37;;
67090;SDS011;54007;55.818;49.058;2023-09-07T09:38:29;10.28;;;2.20;;
67090;SDS011;54007;55.818;49.058;2023-09-07T09:40:55;5.50;;;1.67;;
67090;SDS011;54007;55.818;49.058;2023-09-07T09:43:21;9.83;;;1.80;;
67090;SDS011;54007;55.818;49.058;2023-09-07T09:45:47;8.63;;;1.70;;
67090;SDS011;54007;55.818;49.058;2023-09-07T09:48:13;6.73;;;1.17;;
67090;SDS011;54007;55.818;49.058;2023-09-07T09:50:39;4.00;;;1.37;;
67090;SDS011;54007;55.818;49.058;2023-09-07T09:53:07;4.78;;;1.35;;
67090;SDS011;54007;55.818;49.058;2023-09-07T09:55:33;9.90;;;1.50;;
67090;SDS011;54007;55.818;49.058;2023-09-07T09:57:59;9.63;;;1.65;;
67090;SDS011;54007;55.818;49.058;2023-09-07T10:00:25;6.28;;;1.30;;
67090;SDS011;54007;55.818;49.058;2023-09-07T10:05:32;4.67;;;1.40;;
67090;SDS011;54007;55.818;49.058;2023-09-07T10:08:01;8.58;;;1.67;;
67090;SDS011;54007;55.818;49.058;2023-09-07T10:10:31;4.75;;;1.32;;
67090;SDS011;54007;55.818;49.058;2023-09-07T10:12:52;6.15;;;1.60;;
67090;SDS011;54007;55.818;49.058;2023-09-07T10:15:21;7.15;;;1.67;;
67090;SDS011;54007;55.818;49.058;2023-09-07T10:17:46;5.72;;;1.80;;
67090;SDS011;54007;55.818;49.058;2023-09-07T10:20:12;7.13;;;1.80;;
67090;SDS011;54007;55.818;49.058;2023-09-07T10:22:38;6.10;;;1.55;;
67090;SDS011;54007;55.818;49.058;2023-09-07T10:25:04;6.28;;;1.60;;
67090;SDS011;54007;55.818;49.058;2023-09-07T10:27:36;9.23;;;1.60;;
67090;SDS011;54007;55.818;49.058;2023-09-07T10:30:02;6.15;;;1.60;;
67090;SDS011;54007;55.818;49.058;2023-09-07T10:32:37;4.50;;;1.50;;
67090;SDS011;54007;55.818;49.058;2023-09-07T10:34:59;4.30;;;1.40;;
67090;SDS011;54007;55.818;49.058;2023-09-07T10:37:30;4.17;;;1.60;;
67090;SDS011;54007;55.818;49.058;2023-09-07T10:39:55;4.58;;;1.45;;
67090;SDS011;54007;55.818;49.058;2023-09-07T10:42:21;5.97;;;1.60;;
67090;SDS011;54007;55.818;49.058;2023-09-07T10:44:47;4.03;;;1.50;;
67090;SDS011;54007;55.818;49.058;2023-09-07T10:47:13;4.27;;;1.70;;
67090;SDS011;54007;55.818;49.058;2023-09-07T10:49:39;5.80;;;1.60;;
67090;SDS011;54007;55.818;49.058;2023-09-07T10:52:05;9.45;;;2.00;;
67090;SDS011;54007;55.818;49.058;2023-09-07T10:54:30;13.30;;;2.87;;
67090;SDS011;54007;55.818;49.058;2023-09-07T10:56:56;6.92;;;2.17;;
67090;SDS011;54007;55.818;49.058;2023-09-07T10:59:22;5.20;;;1.60;;
67090;SDS011;54007;55.818;49.058;2023-09-07T11:01:48;8.13;;;1.82;;
67090;SDS011;54007;55.818;49.058;2023-09-07T11:04:14;4.87;;;1.50;;
67090;SDS011;54007;55.818;49.058;2023-09-07T11:06:40;8.20;;;1.73;;
67090;SDS011;54007;55.818;49.058;2023-09-07T11:09:05;8.43;;;1.65;;
67090;SDS011;54007;55.818;49.058;2023-09-07T11:11:34;10.60;;;2.00;;
67090;SDS011;54007;55.818;49.058;2023-09-07T11:14:01;4.10;;;1.33;;
67090;SDS011;54007;55.818;49.058;2023-09-07T11:16:26;6.72;;;2.10;;
67090;SDS011;54007;55.818;49.058;2023-09-07T11:18:52;5.03;;;1.62;;
67090;SDS011;54007;55.818;49.058;2023-09-07T11:21:17;5.40;;;1.40;;
67090;SDS011;54007;55.818;49.058;2023-09-07T11:23:44;5.75;;;1.62;;
67090;SDS011;54007;55.818;49.058;2023-09-07T11:26:12;6.40;;;1.70;;
67090;SDS011;54007;55.818;49.058;2023-09-07T11:28:35;6.17;;;1.55;;
67090;SDS011;54007;55.818;49.058;2023-09-07T11:31:01;5.25;;;1.37;;
67090;SDS011;54007;55.818;49.058;2023-09-07T11:33:30;6.10;;;1.90;;
67090;SDS011;54007;55.818;49.058;2023-09-07T11:35:53;7.83;;;1.40;;
67090;SDS011;54007;55.818;49.058;2023-09-07T11:38:22;6.45;;;1.15;;
67090;SDS011;54007;55.818;49.058;2023-09-07T11:40:47;7.57;;;1.50;;
67090;SDS011;54007;55.818;49.058;2023-09-07T11:43:14;4.95;;;1.62;;
67090;SDS011;54007;55.818;49.058;2023-09-07T11:45:43;4.97;;;1.10;;
67090;SDS011;54007;55.818;49.058;2023-09-07T11:48:08;4.07;;;1.30;;
67090;SDS011;54007;55.818;49.058;2023-09-07T11:50:37;6.37;;;1.30;;
67090;SDS011;54007;55.818;49.058;2023-09-07T11:53:07;4.03;;;1.20;;
67090;SDS011;54007;55.818;49.058;2023-09-07T11:55:38;4.55;;;1.20;;
67090;SDS011;54007;55.818;49.058;2023-09-07T11:58:04;7.60;;;1.30;;
67090;SDS011;54007;55.818;49.058;2023-09-07T12:00:30;8.55;;;1.40;;
67090;SDS011;54007;55.818;49.058;2023-09-07T12:02:56;4.37;;;1.30;;
67090;SDS011;54007;55.818;49.058;2023-09-07T12:05:22;8.70;;;1.25;;
67090;SDS011;54007;55.818;49.058;2023-09-07T12:07:48;6.42;;;1.92;;
67090;SDS011;54007;55.818;49.058;2023-09-07T12:10:14;7.50;;;1.60;;
67090;SDS011;54007;55.818;49.058;2023-09-07T12:12:40;4.93;;;1.20;;
67090;SDS011;54007;55.818;49.058;2023-09-07T12:15:06;6.65;;;1.32;;
67090;SDS011;54007;55.818;49.058;2023-09-07T12:17:32;5.80;;;1.65;;
67090;SDS011;54007;55.818;49.058;2023-09-07T12:19:57;5.90;;;1.20;;
67090;SDS011;54007;55.818;49.058;2023-09-07T12:22:23;3.92;;;1.32;;
67090;SDS011;54007;55.818;49.058;2023-09-07T12:24:49;4.47;;;1.32;;
67090;SDS011;54007;55.818;49.058;2023-09-07T12:27:15;4.60;;;1.57;;
67090;SDS011;54007;55.818;49.058;2023-09-07T12:29:41;4.75;;;2.00;;
67090;SDS011;54007;55.818;49.058;2023-09-07T12:32:07;5.20;;;1.80;;
67090;SDS011;54007;55.818;49.058;2023-09-07T12:34:32;4.83;;;2.15;;
67090;SDS011;54007;55.818;49.058;2023-09-07T12:36:58;4.72;;;1.82;;
67090;SDS011;54007;55.818;49.058;2023-09-07T12:39:24;6.70;;;2.10;;
67090;SDS011;54007;55.818;49.058;2023-09-07T12:41:50;4.62;;;2.08;;
67090;SDS011;54007;55.818;49.058;2023-09-07T12:44:16;5.35;;;1.70;;
67090;SDS011;54007;55.818;49.058;2023-09-07T12:46:42;4.67;;;1.57;;
67090;SDS011;54007;55.818;49.058;2023-09-07T12:49:08;5.20;;;1.70;;
67090;SDS011;54007;55.818;49.058;2023-09-07T12:51:33;4.67;;;1.85;;
67090;SDS011;54007;55.818;49.058;2023-09-07T12:53:59;5.35;;;2.12;;
67090;SDS011;54007;55.818;49.058;2023-09-07T12:56:25;6.22;;;2.02;;
67090;SDS011;54007;55.818;49.058;2023-09-07T12:58:51;4.77;;;2.00;;
67090;SDS011;54007;55.818;49.058;2023-09-07T13:01:17;4.90;;;2.00;;
67090;SDS011;54007;55.818;49.058;2023-09-07T13:03:43;4.95;;;1.82;;
67090;SDS011;54007;55.818;49.058;2023-09-07T13:06:09;4.67;;;1.83;;
67090;SDS011;54007;55.818;49.058;2023-09-07T13:08:34;8.50;;;2.50;;
67090;SDS011;54007;55.818;49.058;2023-09-07T13:11:04;7.80;;;2.40;;
67090;SDS011;54007;55.818;49.058;2023-09-07T13:13:36;5.40;;;2.60;;
67090;SDS011;54007;55.818;49.058;2023-09-07T13:16:02;7.95;;;2.80;;
67090;SDS011;54007;55.818;49.058;2023-09-07T13:18:28;5.10;;;2.20;;
67090;SDS011;54007;55.818;49.058;2023-09-07T13:20:54;7.83;;;2.87;;
67090;SDS011;54007;55.818;49.058;2023-09-07T13:23:22;8.13;;;2.58;;
67090;SDS011;54007;55.818;49.058;2023-09-07T13:25:48;5.33;;;2.20;;
67090;SDS011;54007;55.818;49.058;2023-09-07T13:28:14;3.80;;;1.40;;
67090;SDS011;54007;55.818;49.058;2023-09-07T13:30:40;7.10;;;1.98;;
67090;SDS011;54007;55.818;49.058;2023-09-07T13:33:06;3.87;;;1.40;;
67090;SDS011;54007;55.818;49.058;2023-09-07T13:35:31;4.47;;;1.30;;
67090;SDS011;54007;55.818;49.058;2023-09-07T13:37:57;3.72;;;1.40;;
67090;SDS011;54007;55.818;49.058;2023-09-07T13:40:23;4.67;;;1.40;;
67090;SDS011;54007;55.818;49.058;2023-09-07T13:42:49;3.77;;;1.45;;
67090;SDS011;54007;55.818;49.058;2023-09-07T13:45:15;7.70;;;2.00;;
67090;SDS011;54007;55.818;49.058;2023-09-07T13:47:41;9.63;;;2.20;;
67090;SDS011;54007;55.818;49.058;2023-09-07T13:50:07;6.03;;;1.98;;
67090;SDS011;54007;55.818;49.058;2023-09-07T13:52:32;5.27;;;2.00;;
67090;SDS011;54007;55.818;49.058;2023-09-07T13:54:58;6.17;;;2.37;;
67090;SDS011;54007;55.818;49.058;2023-09-07T13:57:24;5.12;;;2.00;;
67090;SDS011;54007;55.818;49.058;2023-09-07T13:59:50;7.10;;;1.93;;
67090;SDS011;54007;55.818;49.058;2023-09-07T14:02:16;6.65;;;1.85;;
67090;SDS011;54007;55.818;49.058;2023-09-07T14:04:42;12.33;;;2.08;;
67090;SDS011;54007;55.818;49.058;2023-09-07T14:07:08;5.50;;;1.43;;
67090;SDS011;54007;55.818;49.058;2023-09-07T14:09:33;6.28;;;2.05;;
67090;SDS011;54007;55.818;49.058;2023-09-07T14:11:59;8.03;;;1.30;;
67090;SDS011;54007;55.818;49.058;2023-09-07T14:14:25;4.10;;;1.37;;
67090;SDS011;54007;55.818;49.058;2023-09-07T14:16:51;6.90;;;1.20;;
67090;SDS011;54007;55.818;49.058;2023-09-07T14:19:17;4.27;;;1.47;;
67090;SDS011;54007;55.818;49.058;2023-09-07T14:21:43;4.20;;;1.30;;
67090;SDS011;54007;55.818;49.058;2023-09-07T14:24:09;5.33;;;1.60;;
67090;SDS011;54007;55.818;49.058;2023-09-07T14:26:34;5.50;;;1.50;;
67090;SDS011;54007;55.818;49.058;2023-09-07T14:29:04;4.40;;;1.50;;
67090;SDS011;54007;55.818;49.058;2023-09-07T14:31:36;4.67;;;1.30;;
67090;SDS011;54007;55.818;49.058;2023-09-07T14:34:02;6.20;;;1.60;;
67090;SDS011;54007;55.818;49.058;2023-09-07T14:36:27;6.17;;;1.50;;
67090;SDS011;54007;55.818;49.058;2023-09-07T14:38:53;4.78;;;1.60;;
67090;SDS011;54007;55.818;49.058;2023-09-07T14:41:19;4.83;;;1.80;;
67090;SDS011;54007;55.818;49.058;2023-09-07T14:43:45;5.33;;;2.05;;
67090;SDS011;54007;55.818;49.058;2023-09-07T14:46:11;5.80;;;1.87;;
67090;SDS011;54007;55.818;49.058;2023-09-07T14:48:37;6.70;;;2.00;;
67090;SDS011;54007;55.818;49.058;2023-09-07T14:51:03;7.97;;;2.30;;
67090;SDS011;54007;55.818;49.058;2023-09-07T14:53:28;6.60;;;2.00;;
67090;SDS011;54007;55.818;49.058;2023-09-07T14:55:54;8.05;;;1.80;;
67090;SDS011;54007;55.818;49.058;2023-09-07T14:58:20;5.57;;;1.90;;
67090;SDS011;54007;55.818;49.058;2023-09-07T15:00:46;8.38;;;2.02;;
67090;SDS011;54007;55.818;49.058;2023-09-07T15:03:12;6.72;;;2.35;;
67090;SDS011;54007;55.818;49.058;2023-09-07T15:05:38;4.73;;;1.83;;
67090;SDS011;54007;55.818;49.058;2023-09-07T15:08:03;5.15;;;1.40;;
67090;SDS011;54007;55.818;49.058;2023-09-07T15:10:29;3.37;;;1.20;;
67090;SDS011;54007;55.818;49.058;2023-09-07T15:12:55;3.40;;;1.10;;
67090;SDS011;54007;55.818;49.058;2023-09-07T15:15:21;4.37;;;1.20;;
67090;SDS011;54007;55.818;49.058;2023-09-07T15:17:47;3.73;;;1.20;;
67090;SDS011;54007;55.818;49.058;2023-09-07T15:20:13;4.40;;;1.20;;
67090;SDS011;54007;55.818;49.058;2023-09-07T15:22:38;4.17;;;1.20;;
67090;SDS011;54007;55.818;49.058;2023-09-07T15:25:04;4.08;;;1.22;;
67090;SDS011;54007;55.818;49.058;2023-09-07T15:27:30;4.40;;;1.30;;
67090;SDS011;54007;55.818;49.058;2023-09-07T15:29:56;4.17;;;1.40;;
67090;SDS011;54007;55.818;49.058;2023-09-07T15:32:22;3.87;;;1.20;;
67090;SDS011;54007;55.818;49.058;2023-09-07T15:34:48;4.25;;;1.30;;
67090;SDS011;54007;55.818;49.058;2023-09-07T15:37:14;4.33;;;1.25;;
67090;SDS011;54007;55.818;49.058;2023-09-07T15:39:39;4.37;;;1.35;;
67090;SDS011;54007;55.818;49.058;2023-09-07T15:42:05;3.20;;;1.13;;
67090;SDS011;54007;55.818;49.058;2023-09-07T15:44:31;4.53;;;1.70;;
67090;SDS011;54007;55.818;49.058;2023-09-07T15:46:57;5.90;;;2.90;;
67090;SDS011;54007;55.818;49.058;2023-09-07T15:49:29;6.20;;;2.40;;
67090;SDS011;54007;55.818;49.058;2023-09-07T15:51:55;9.68;;;2.87;;
67090;SDS011;54007;55.818;49.058;2023-09-07T15:54:21;7.12;;;1.90;;
67090;SDS011;54007;55.818;49.058;2023-09-07T15:56:47;7.85;;;2.00;;
67090;SDS011;54007;55.818;49.058;2023-09-07T15:59:12;8.35;;;1.57;;
67090;SDS011;54007;55.818;49.058;2023-09-07T16:01:38;4.17;;;1.40;;
67090;SDS011;54007;55.818;49.058;2023-09-07T16:04:04;4.90;;;1.45;;
67090;SDS011;54007;55.818;49.058;2023-09-07T16:06:30;6.15;;;1.40;;
67090;SDS011;54007;55.818;49.058;2023-09-07T16:08:56;5.12;;;1.62;;
67090;SDS011;54007;55.818;49.058;2023-09-07T16:11:22;5.60;;;1.50;;
67090;SDS011;54007;55.818;49.058;2023-09-07T16:13:48;4.92;;;1.30;;
67090;SDS011;54007;55.818;49.058;2023-09-07T16:16:14;6.00;;;1.47;;
67090;SDS011;54007;55.818;49.058;2023-09-07T16:18:39;5.60;;;1.35;;
67090;SDS011;54007;55.818;49.058;2023-09-07T16:21:05;4.47;;;1.60;;
67090;SDS011;54007;55.818;49.058;2023-09-07T16:23:31;4.97;;;1.92;;
67090;SDS011;54007;55.818;49.058;2023-09-07T16:25:57;7.42;;;2.92;;
67090;SDS011;54007;55.818;49.058;2023-09-07T16:28:23;8.50;;;3.50;;
67090;SDS011;54007;55.818;49.058;2023-09-07T16:30:50;8.80;;;3.30;;
67090;SDS011;54007;55.818;49.058;2023-09-07T16:33:14;7.33;;;3.10;;
67090;SDS011;54007;55.818;49.058;2023-09-07T16:35:40;7.15;;;2.90;;
67090;SDS011;54007;55.818;49.058;2023-09-07T16:38:06;5.67;;;2.30;;
67090;SDS011;54007;55.818;49.058;2023-09-07T16:40:32;6.60;;;2.40;;
67090;SDS011;54007;55.818;49.058;2023-09-07T16:42:58;5.92;;;1.90;;
67090;SDS011;54007;55.818;49.058;2023-09-07T16:45:24;6.83;;;2.10;;
67090;SDS011;54007;55.818;49.058;2023-09-07T16:47:50;5.20;;;1.50;;
67090;SDS011;54007;55.818;49.058;2023-09-07T16:50:16;5.05;;;1.65;;
67090;SDS011;54007;55.818;49.058;2023-09-07T16:52:41;4.33;;;1.30;;
67090;SDS011;54007;55.818;49.058;2023-09-07T16:55:07;6.40;;;1.57;;
67090;SDS011;54007;55.818;49.058;2023-09-07T16:57:33;5.05;;;1.50;;
67090;SDS011;54007;55.818;49.058;2023-09-07T16:59:59;7.37;;;1.50;;
67090;SDS011;54007;55.818;49.058;2023-09-07T17:02:25;5.28;;;1.42;;
67090;SDS011;54007;55.818;49.058;2023-09-07T17:04:55;5.58;;;1.30;;
67090;SDS011;54007;55.818;49.058;2023-09-07T17:07:27;5.73;;;1.40;;
67090;SDS011;54007;55.818;49.058;2023-09-07T17:09:53;4.28;;;1.37;;
67090;SDS011;54007;55.818;49.058;2023-09-07T17:12:18;5.62;;;1.50;;
67090;SDS011;54007;55.818;49.058;2023-09-07T17:14:44;4.43;;;1.40;;
67090;SDS011;54007;55.818;49.058;2023-09-07T17:17:10;3.80;;;1.40;;
67090;SDS011;54007;55.818;49.058;2023-09-07T17:19:36;4.20;;;1.45;;
67090;SDS011;54007;55.818;49.058;2023-09-07T17:22:02;5.60;;;1.70;;
67090;SDS011;54007;55.818;49.058;2023-09-07T17:24:28;5.83;;;1.62;;
67090;SDS011;54007;55.818;49.058;2023-09-07T17:26:54;6.00;;;1.70;;
67090;SDS011;54007;55.818;49.058;2023-09-07T17:29:19;9.65;;;1.82;;
67090;SDS011;54007;55.818;49.058;2023-09-07T17:31:45;6.03;;;1.90;;
67090;SDS011;54007;55.818;49.058;2023-09-07T17:34:11;5.63;;;2.10;;
67090;SDS011;54007;55.818;49.058;2023-09-07T17:36:37;7.00;;;2.33;;
67090;SDS011;54007;55.818;49.058;2023-09-07T17:39:05;9.13;;;2.20;;
67090;SDS011;54007;55.818;49.058;2023-09-07T17:41:29;8.90;;;2.50;;
67090;SDS011;54007;55.818;49.058;2023-09-07T17:43:55;10.82;;;2.80;;
67090;SDS011;54007;55.818;49.058;2023-09-07T17:46:23;10.43;;;2.70;;
67090;SDS011;54007;55.818;49.058;2023-09-07T17:48:49;10.25;;;2.60;;
67090;SDS011;54007;55.818;49.058;2023-09-07T17:51:15;8.95;;;3.10;;
67090;SDS011;54007;55.818;49.058;2023-09-07T17:53:41;10.72;;;3.00;;
67090;SDS011;54007;55.818;49.058;2023-09-07T17:56:07;8.18;;;2.98;;
67090;SDS011;54007;55.818;49.058;2023-09-07T17:58:37;9.63;;;2.42;;
67090;SDS011;54007;55.818;49.058;2023-09-07T18:01:08;9.38;;;2.33;;
67090;SDS011;54007;55.818;49.058;2023-09-07T18:03:30;9.17;;;2.80;;
67090;SDS011;54007;55.818;49.058;2023-09-07T18:05:56;8.50;;;2.50;;
67090;SDS011;54007;55.818;49.058;2023-09-07T18:08:22;11.30;;;2.70;;
67090;SDS011;54007;55.818;49.058;2023-09-07T18:10:48;8.83;;;2.62;;
67090;SDS011;54007;55.818;49.058;2023-09-07T18:13:14;10.68;;;2.70;;
67090;SDS011;54007;55.818;49.058;2023-09-07T18:15:41;13.80;;;3.17;;
67090;SDS011;54007;55.818;49.058;2023-09-07T18:18:06;9.95;;;3.05;;
67090;SDS011;54007;55.818;49.058;2023-09-07T19:16:40;7.30;;;1.80;;
67090;SDS011;54007;55.818;49.058;2023-09-07T19:19:12;9.08;;;1.90;;
67090;SDS011;54007;55.818;49.058;2023-09-07T19:21:38;10.93;;;1.82;;
67090;SDS011;54007;55.818;49.058;2023-09-07T19:24:04;5.77;;;1.83;;
67090;SDS011;54007;55.818;49.058;2023-09-07T19:26:30;8.43;;;2.10;;
67090;SDS011;54007;55.818;49.058;2023-09-07T19:28:56;9.25;;;2.02;;
67090;SDS011;54007;55.818;49.058;2023-09-07T19:31:21;9.33;;;2.12;;
67090;SDS011;54007;55.818;49.058;2023-09-07T19:33:47;11.90;;;1.95;;
67090;SDS011;54007;55.818;49.058;2023-09-07T19:36:13;8.03;;;2.20;;
67090;SDS011;54007;55.818;49.058;2023-09-07T19:38:39;7.40;;;1.90;;
67090;SDS011;54007;55.818;49.058;2023-09-07T19:41:04;7.50;;;2.20;;
67090;SDS011;54007;55.818;49.058;2023-09-07T19:43:31;11.57;;;1.70;;
67090;SDS011;54007;55.818;49.058;2023-09-07T19:45:57;11.60;;;1.70;;
67090;SDS011;54007;55.818;49.058;2023-09-07T19:48:22;6.78;;;1.60;;
67090;SDS011;54007;55.818;49.058;2023-09-07T19:50:48;9.80;;;1.77;;
67090;SDS011;54007;55.818;49.058;2023-09-07T19:53:14;14.03;;;1.73;;
67090;SDS011;54007;55.818;49.058;2023-09-07T19:55:40;4.22;;;1.47;;
67090;SDS011;54007;55.818;49.058;2023-09-07T19:58:06;5.05;;;1.45;;
67090;SDS011;54007;55.818;49.058;2023-09-07T20:00:32;4.60;;;1.52;;
67090;SDS011;54007;55.818;49.058;2023-09-07T20:02:57;6.30;;;1.65;;
67090;SDS011;54007;55.818;49.058;2023-09-07T20:05:23;7.93;;;1.50;;
67090;SDS011;54007;55.818;49.058;2023-09-07T20:07:49;9.15;;;1.40;;
67090;SDS011;54007;55.818;49.058;2023-09-07T20:10:18;8.23;;;1.57;;
67090;SDS011;54007;55.818;49.058;2023-09-07T20:12:41;7.17;;;1.40;;
67090;SDS011;54007;55.818;49.058;2023-09-07T20:15:07;7.55;;;1.90;;
67090;SDS011;54007;55.818;49.058;2023-09-07T20:17:33;6.33;;;1.30;;
67090;SDS011;54007;55.818;49.058;2023-09-07T20:19:59;3.77;;;1.50;;
67090;SDS011;54007;55.818;49.058;2023-09-07T20:22:24;5.75;;;1.22;;
67090;SDS011;54007;55.818;49.058;2023-09-07T20:24:50;6.03;;;1.27;;
67090;SDS011;54007;55.818;49.058;2023-09-07T20:27:16;4.90;;;1.33;;
67090;SDS011;54007;55.818;49.058;2023-09-07T20:29:42;5.03;;;1.55;;
67090;SDS011;54007;55.818;49.058;2023-09-07T20:32:08;5.72;;;1.60;;
67090;SDS011;54007;55.818;49.058;2023-09-07T20:34:38;7.00;;;1.50;;
67090;SDS011;54007;55.818;49.058;2023-09-07T20:37:11;6.08;;;1.40;;
67090;SDS011;54007;55.818;49.058;2023-09-07T20:39:34;5.37;;;1.30;;
67090;SDS011;54007;55.818;49.058;2023-09-07T20:42:00;7.25;;;1.40;;
